createdAt,value
2019-03-16T00:00:23.934Z,99.90
2019-03-16T00:02:53.124Z,99.90
2019-03-16T00:05:21.919Z,99.90
2019-03-16T00:07:51.197Z,99.90
2019-03-16T00:10:20.314Z,99.90
2019-03-16T00:12:49.109Z,99.90
2019-03-16T00:15:18.166Z,99.90
2019-03-16T00:17:47.432Z,99.90
2019-03-16T00:20:16.307Z,99.90
2019-03-16T00:22:45.087Z,99.90
2019-03-16T00:25:14.198Z,99.90
2019-03-16T00:27:43.735Z,99.90
2019-03-16T00:30:12.793Z,99.90
2019-03-16T00:32:41.589Z,99.90
2019-03-16T00:35:10.760Z,99.90
2019-03-16T00:37:40.202Z,99.90
2019-03-16T00:40:09.210Z,99.90
2019-03-16T00:42:38.156Z,99.90
2019-03-16T00:45:07.723Z,99.90
2019-03-16T00:47:37.100Z,99.90
2019-03-16T00:50:06.733Z,99.90
2019-03-16T00:52:35.532Z,99.90
2019-03-16T00:55:05.222Z,99.90
2019-03-16T00:57:34.006Z,99.90
2019-03-16T01:00:03.222Z,99.90
2019-03-16T01:02:32.985Z,99.90
2019-03-16T01:05:02.622Z,99.90
2019-03-16T01:07:31.651Z,99.90
2019-03-16T01:10:01.020Z,99.90
2019-03-16T01:12:30.549Z,99.90
2019-03-16T01:15:00.465Z,99.90
2019-03-16T01:17:29.638Z,99.90
2019-03-16T01:19:58.442Z,99.90
2019-03-16T01:22:27.718Z,99.90
2019-03-16T01:24:57.000Z,99.90
2019-03-16T01:27:26.311Z,99.90
2019-03-16T01:29:55.161Z,99.90
2019-03-16T01:32:24.285Z,99.90
2019-03-16T01:34:53.328Z,99.90
2019-03-16T01:37:22.113Z,99.90
2019-03-16T01:39:51.240Z,99.90
2019-03-16T01:42:20.094Z,99.90
2019-03-16T01:44:49.155Z,99.90
2019-03-16T01:47:18.425Z,99.90
2019-03-16T01:49:47.788Z,99.90
2019-03-16T01:52:17.146Z,99.90
2019-03-16T01:54:45.933Z,99.90
2019-03-16T01:57:15.199Z,99.90
2019-03-16T01:59:44.305Z,99.90
2019-03-16T02:02:13.581Z,99.90
2019-03-16T02:04:42.375Z,99.90
2019-03-16T02:07:11.478Z,99.90
2019-03-16T02:09:40.843Z,99.90
2019-03-16T02:12:09.698Z,99.90
2019-03-16T02:14:39.246Z,99.90
2019-03-16T02:17:08.616Z,99.90
2019-03-16T02:19:37.671Z,99.90
2019-03-16T02:22:07.024Z,99.90
2019-03-16T02:24:35.817Z,99.90
2019-03-16T02:27:05.066Z,99.90
2019-03-16T02:29:34.336Z,99.90
2019-03-16T02:32:03.216Z,99.90
2019-03-16T02:34:32.490Z,99.90
2019-03-16T02:37:01.522Z,99.90
2019-03-16T02:39:30.983Z,99.90
2019-03-16T02:42:00.032Z,99.90
2019-03-16T02:44:29.074Z,99.90
2019-03-16T02:46:58.105Z,99.90
2019-03-16T02:49:27.413Z,99.90
2019-03-16T02:51:56.694Z,99.90
2019-03-16T02:54:26.012Z,99.90
2019-03-16T02:56:55.336Z,99.90
2019-03-16T02:59:25.088Z,99.90
2019-03-16T03:01:54.194Z,99.90
2019-03-16T03:04:23.232Z,99.90
2019-03-16T03:06:52.441Z,99.90
2019-03-16T03:09:21.304Z,99.90
2019-03-16T03:11:50.411Z,99.90
2019-03-16T03:14:19.698Z,99.90
2019-03-16T03:16:48.737Z,99.90
2019-03-16T03:19:18.011Z,99.90
2019-03-16T03:21:47.058Z,99.90
2019-03-16T03:24:16.355Z,99.90
2019-03-16T03:26:45.642Z,99.90
2019-03-16T03:29:14.954Z,99.90
2019-03-16T03:31:44.014Z,99.90
2019-03-16T03:34:13.323Z,99.90
2019-03-16T03:36:42.982Z,99.90
2019-03-16T03:39:12.011Z,99.90
2019-03-16T03:41:41.308Z,99.90
2019-03-16T03:44:10.611Z,99.90
2019-03-16T03:46:40.430Z,99.90
2019-03-16T03:49:09.306Z,99.90
2019-03-16T03:51:38.854Z,99.90
2019-03-16T03:54:07.969Z,99.90
2019-03-16T03:56:37.313Z,99.90
2019-03-16T03:59:06.665Z,99.90
2019-03-16T04:01:35.962Z,99.90
2019-03-16T04:04:15.361Z,99.90
2019-03-16T04:06:36.714Z,99.90
2019-03-16T04:09:08.055Z,99.90
2019-03-16T04:11:37.103Z,99.90
2019-03-16T04:14:06.211Z,99.90
2019-03-16T04:16:35.593Z,99.90
2019-03-16T04:19:04.968Z,99.90
2019-03-16T04:21:34.043Z,99.90
2019-03-16T04:24:02.879Z,99.90
2019-03-16T04:26:32.206Z,99.90
2019-03-16T04:29:00.996Z,99.90
2019-03-16T04:31:30.035Z,99.90
2019-03-16T04:33:59.083Z,99.90
2019-03-16T04:36:28.207Z,99.90
2019-03-16T04:38:56.971Z,99.90
2019-03-16T04:41:26.225Z,99.90
2019-03-16T04:43:55.791Z,99.90
2019-03-16T04:46:24.817Z,99.90
2019-03-16T04:48:53.648Z,99.90
2019-03-16T04:51:22.916Z,99.90
2019-03-16T04:53:52.218Z,99.90
2019-03-16T04:56:21.262Z,99.90
2019-03-16T04:58:51.718Z,99.90
2019-03-16T05:01:20.679Z,99.90
2019-03-16T05:03:49.783Z,99.90
2019-03-16T05:06:18.802Z,99.90
2019-03-16T05:08:48.094Z,99.90
2019-03-16T05:11:16.871Z,99.90
2019-03-16T05:13:46.410Z,99.90
2019-03-16T05:16:15.454Z,99.90
2019-03-16T05:18:44.499Z,99.90
2019-03-16T05:21:13.305Z,99.90
2019-03-16T05:23:42.346Z,99.90
2019-03-16T05:26:11.635Z,99.90
2019-03-16T05:28:41.407Z,99.90
2019-03-16T05:31:10.184Z,99.90
2019-03-16T05:33:39.238Z,99.90
2019-03-16T05:36:08.253Z,99.90
2019-03-16T05:38:37.774Z,99.90
2019-03-16T05:41:06.873Z,99.90
2019-03-16T05:43:35.919Z,99.90
2019-03-16T05:46:05.035Z,99.90
2019-03-16T05:48:34.499Z,99.90
2019-03-16T05:51:03.544Z,99.90
2019-03-16T05:53:33.169Z,99.90
2019-03-16T05:56:02.294Z,99.90
2019-03-16T05:58:31.611Z,99.90
2019-03-16T06:01:00.624Z,99.90
2019-03-16T06:03:30.162Z,99.90
2019-03-16T06:05:59.277Z,99.90
2019-03-16T06:08:28.598Z,99.90
2019-03-16T06:10:57.641Z,99.90
2019-03-16T06:13:26.729Z,99.90
2019-03-16T06:15:56.658Z,99.90
2019-03-16T06:18:26.194Z,99.90
2019-03-16T06:20:55.713Z,99.90
2019-03-16T06:23:25.261Z,99.90
2019-03-16T06:25:54.303Z,99.90
2019-03-16T06:28:23.878Z,99.90
2019-03-16T06:30:53.226Z,99.90
2019-03-16T06:33:23.038Z,99.90
2019-03-16T06:35:51.830Z,99.90
2019-03-16T06:38:21.361Z,99.90
2019-03-16T06:40:50.659Z,99.90
2019-03-16T06:43:19.455Z,99.90
2019-03-16T06:45:48.482Z,99.90
2019-03-16T06:48:17.564Z,99.90
2019-03-16T06:50:46.350Z,99.90
2019-03-16T06:53:15.400Z,99.90
2019-03-16T06:55:44.182Z,99.90
2019-03-16T06:58:13.232Z,99.90
2019-03-16T07:00:42.009Z,99.90
2019-03-16T07:03:10.806Z,99.90
2019-03-16T07:05:39.590Z,99.90
2019-03-16T07:08:08.380Z,99.90
2019-03-16T07:10:37.172Z,99.90
2019-03-16T07:13:06.042Z,99.90
2019-03-16T07:15:35.674Z,99.90
2019-03-16T07:18:04.774Z,99.90
2019-03-16T07:20:33.844Z,99.90
2019-03-16T07:23:02.963Z,99.90
2019-03-16T07:25:32.478Z,99.90
2019-03-16T07:28:01.305Z,99.90
2019-03-16T07:30:30.184Z,99.90
2019-03-16T07:32:59.715Z,99.90
2019-03-16T07:35:29.005Z,99.90
2019-03-16T07:37:58.275Z,99.90
2019-03-16T07:40:27.327Z,99.90
2019-03-16T07:42:56.399Z,99.90
2019-03-16T07:45:25.798Z,99.90
2019-03-16T07:47:55.090Z,99.90
2019-03-16T07:50:24.396Z,99.90
2019-03-16T07:52:53.278Z,99.90
2019-03-16T07:55:22.574Z,99.90
2019-03-16T07:57:51.366Z,99.90
2019-03-16T08:00:20.763Z,99.90
2019-03-16T08:02:49.899Z,99.90
2019-03-16T08:05:19.439Z,99.90
2019-03-16T08:07:48.374Z,99.90
2019-03-16T08:10:17.181Z,99.90
2019-03-16T08:12:46.822Z,99.90
2019-03-16T08:15:15.867Z,99.90
2019-03-16T08:17:45.195Z,99.90
2019-03-16T08:20:14.444Z,99.90
2019-03-16T08:22:43.262Z,99.90
2019-03-16T08:25:12.561Z,99.90
2019-03-16T08:27:53.439Z,99.90
2019-03-16T08:30:12.617Z,99.90
2019-03-16T08:32:41.401Z,99.90
2019-03-16T08:35:10.798Z,99.90
2019-03-16T08:37:40.066Z,99.90
2019-03-16T08:40:09.213Z,99.90
2019-03-16T08:42:38.809Z,99.90
2019-03-16T08:45:08.014Z,99.90
2019-03-16T08:47:37.071Z,99.90
2019-03-16T08:50:06.122Z,99.90
2019-03-16T08:52:35.395Z,99.90
2019-03-16T08:55:04.536Z,99.90
2019-03-16T08:57:33.562Z,99.90
2019-03-16T09:00:03.303Z,99.90
2019-03-16T09:02:32.330Z,99.90
2019-03-16T09:05:01.645Z,99.90
2019-03-16T09:07:31.160Z,99.90
2019-03-16T09:10:00.482Z,99.90
2019-03-16T09:12:29.510Z,99.90
2019-03-16T09:14:59.097Z,99.90
2019-03-16T09:17:28.374Z,99.90
2019-03-16T09:19:57.417Z,99.90
2019-03-16T09:22:29.605Z,99.90
2019-03-16T09:24:58.394Z,99.90
2019-03-16T09:27:31.465Z,99.90
2019-03-16T09:29:58.542Z,99.90
2019-03-16T09:32:27.846Z,99.90
2019-03-16T09:34:57.230Z,99.90
2019-03-16T09:37:26.282Z,99.90
2019-03-16T09:39:55.322Z,99.90
2019-03-16T09:42:24.664Z,99.90
2019-03-16T09:44:53.769Z,99.90
2019-03-16T09:47:23.065Z,99.90
2019-03-16T09:49:52.386Z,99.90
2019-03-16T09:52:21.193Z,99.90
2019-03-16T09:54:50.533Z,99.90
2019-03-16T09:57:19.831Z,99.90
2019-03-16T09:59:49.138Z,99.90
2019-03-16T10:02:18.205Z,99.90
2019-03-16T10:04:47.301Z,99.90
2019-03-16T10:07:16.618Z,99.90
2019-03-16T10:09:45.924Z,99.90
2019-03-16T10:12:15.081Z,99.90
2019-03-16T10:14:44.123Z,99.90
2019-03-16T10:17:13.572Z,99.90
2019-03-16T10:19:42.921Z,99.90
2019-03-16T10:22:11.972Z,99.90
2019-03-16T10:24:41.280Z,99.90
2019-03-16T10:27:10.150Z,99.90
2019-03-16T10:29:39.196Z,99.90
2019-03-16T10:32:08.249Z,99.90
2019-03-16T10:34:37.048Z,99.90
2019-03-16T10:37:06.238Z,99.90
2019-03-16T10:39:35.877Z,99.90
2019-03-16T10:42:05.166Z,99.90
2019-03-16T10:44:34.278Z,99.90
2019-03-16T10:47:03.075Z,99.90
2019-03-16T10:49:31.868Z,99.90
2019-03-16T10:52:00.933Z,99.90
2019-03-16T10:54:30.042Z,99.90
2019-03-16T10:56:59.683Z,99.90
2019-03-16T10:59:28.492Z,99.90
2019-03-16T11:01:57.354Z,99.90
2019-03-16T11:04:27.166Z,99.90
2019-03-16T11:06:55.971Z,99.90
2019-03-16T11:09:26.732Z,99.90
2019-03-16T11:11:55.864Z,99.90
2019-03-16T11:14:24.683Z,99.90
2019-03-16T11:16:54.225Z,99.90
2019-03-16T11:19:23.771Z,99.90
2019-03-16T11:21:52.941Z,99.90
2019-03-16T11:24:22.257Z,99.90
2019-03-16T11:26:51.346Z,99.90
2019-03-16T11:29:20.662Z,99.90
2019-03-16T11:31:49.465Z,99.90
2019-03-16T11:34:19.003Z,99.90
2019-03-16T11:36:48.533Z,99.90
2019-03-16T11:39:18.114Z,99.90
2019-03-16T11:41:47.257Z,99.90
2019-03-16T11:44:17.138Z,99.90
2019-03-16T11:46:46.484Z,99.90
2019-03-16T11:49:15.542Z,99.90
2019-03-16T11:51:45.109Z,99.90
2019-03-16T11:54:14.380Z,99.90
2019-03-16T11:56:44.177Z,99.90
2019-03-16T11:59:21.598Z,99.90
2019-03-16T12:01:44.567Z,99.90
2019-03-16T12:04:13.639Z,99.90
2019-03-16T12:06:42.707Z,99.90
2019-03-16T12:09:11.511Z,99.90
2019-03-16T12:11:40.580Z,99.90
2019-03-16T12:14:09.718Z,99.90
2019-03-16T12:16:38.517Z,99.90
2019-03-16T12:19:07.559Z,99.90
2019-03-16T12:21:36.923Z,99.90
2019-03-16T12:24:06.194Z,99.90
2019-03-16T12:26:35.343Z,99.90
2019-03-16T12:29:04.557Z,99.90
2019-03-16T12:31:33.686Z,99.90
2019-03-16T12:34:02.737Z,99.90
2019-03-16T12:36:32.443Z,99.90
2019-03-16T12:39:01.982Z,99.90
2019-03-16T12:41:31.502Z,99.90
2019-03-16T12:44:03.141Z,99.90
2019-03-16T12:46:32.497Z,99.90
2019-03-16T12:49:01.319Z,99.90
2019-03-16T12:51:30.597Z,99.90
2019-03-16T12:53:59.634Z,99.90
2019-03-16T12:56:28.671Z,99.90
2019-03-16T12:59:09.492Z,99.90
2019-03-16T13:01:28.714Z,99.90
2019-03-16T13:03:57.509Z,99.90
2019-03-16T13:06:27.309Z,99.90
2019-03-16T13:08:56.342Z,99.90
2019-03-16T13:11:25.610Z,99.90
2019-03-16T13:13:54.905Z,99.90
2019-03-16T13:16:23.929Z,99.90
2019-03-16T13:18:52.970Z,99.90
2019-03-16T13:21:22.229Z,99.90
2019-03-16T13:23:51.585Z,99.90
2019-03-16T13:26:20.631Z,99.90
2019-03-16T13:28:49.666Z,99.90
2019-03-16T13:31:18.730Z,99.90
2019-03-16T13:33:47.658Z,99.90
2019-03-16T13:36:16.462Z,99.90
2019-03-16T13:38:45.537Z,99.90
2019-03-16T13:41:14.669Z,99.90
2019-03-16T13:43:43.541Z,99.90
2019-03-16T13:46:12.586Z,99.90
2019-03-16T13:48:41.875Z,99.90
2019-03-16T13:51:10.654Z,99.90
2019-03-16T13:53:39.706Z,99.90
2019-03-16T13:56:09.004Z,99.90
2019-03-16T13:58:40.669Z,99.90
2019-03-16T14:01:08.722Z,99.90
2019-03-16T14:03:38.005Z,99.90
2019-03-16T14:06:07.318Z,99.90
2019-03-16T14:08:36.449Z,99.90
2019-03-16T14:11:05.564Z,99.90
2019-03-16T14:13:34.650Z,99.90
2019-03-16T14:16:03.519Z,99.90
2019-03-16T14:18:32.325Z,99.90
2019-03-16T14:21:01.682Z,99.90
2019-03-16T14:23:30.746Z,99.90
2019-03-16T14:25:59.538Z,99.90
2019-03-16T14:28:28.349Z,99.90
2019-03-16T14:30:58.038Z,99.90
2019-03-16T14:33:27.368Z,99.90
2019-03-16T14:35:56.579Z,99.90
2019-03-16T14:38:25.813Z,99.90
2019-03-16T14:40:54.634Z,99.90
2019-03-16T14:43:23.742Z,99.90
2019-03-16T14:45:52.774Z,99.90
2019-03-16T14:48:21.990Z,99.90
2019-03-16T14:50:51.390Z,99.90
2019-03-16T14:53:20.170Z,99.90
2019-03-16T14:55:49.462Z,99.90
2019-03-16T14:58:18.574Z,99.90
2019-03-16T15:00:47.623Z,99.90
2019-03-16T15:03:16.430Z,99.90
2019-03-16T15:05:46.076Z,99.90
2019-03-16T15:08:15.498Z,99.90
2019-03-16T15:10:44.559Z,99.90
2019-03-16T15:13:13.603Z,99.90
2019-03-16T15:15:43.131Z,99.90
2019-03-16T15:18:12.165Z,99.90
2019-03-16T15:20:41.455Z,99.90
2019-03-16T15:23:10.254Z,99.90
2019-03-16T15:25:39.068Z,99.90
2019-03-16T15:28:08.339Z,99.90
2019-03-16T15:30:49.857Z,99.90
2019-03-16T15:33:08.203Z,99.90
2019-03-16T15:35:37.324Z,99.90
2019-03-16T15:38:06.681Z,99.90
2019-03-16T15:40:38.284Z,99.90
2019-03-16T15:43:07.047Z,99.90
2019-03-16T15:45:36.407Z,99.90
2019-03-16T15:48:05.599Z,99.90
2019-03-16T15:50:35.073Z,99.90
2019-03-16T15:53:03.915Z,99.90
2019-03-16T15:55:33.319Z,99.90
2019-03-16T15:58:07.849Z,99.90
2019-03-16T16:00:32.878Z,99.90
2019-03-16T16:03:02.004Z,99.90
2019-03-16T16:05:31.412Z,99.90
2019-03-16T16:08:01.020Z,99.90
2019-03-16T16:10:30.154Z,99.90
2019-03-16T16:12:59.025Z,99.90
2019-03-16T16:15:28.143Z,99.90
2019-03-16T16:17:57.170Z,99.90
2019-03-16T16:20:26.783Z,99.90
2019-03-16T16:22:55.823Z,99.90
2019-03-16T16:25:24.699Z,99.90
2019-03-16T16:27:53.586Z,99.90
2019-03-16T16:30:22.813Z,99.90
2019-03-16T16:32:51.926Z,99.90
2019-03-16T16:35:20.728Z,99.90
2019-03-16T16:37:50.129Z,99.90
2019-03-16T16:40:19.011Z,99.90
2019-03-16T16:42:48.827Z,99.90
2019-03-16T16:45:17.965Z,99.90
2019-03-16T16:47:47.109Z,99.90
2019-03-16T16:50:15.926Z,99.90
2019-03-16T16:52:45.304Z,99.90
2019-03-16T16:55:14.270Z,99.90
2019-03-16T16:57:44.150Z,99.90
2019-03-16T17:00:14.789Z,99.90
2019-03-16T17:02:43.919Z,99.90
2019-03-16T17:05:13.247Z,99.90
2019-03-16T17:07:42.051Z,99.90
2019-03-16T17:10:12.487Z,99.90
2019-03-16T17:12:41.766Z,99.90
2019-03-16T17:15:12.059Z,99.90
2019-03-16T17:17:41.125Z,99.90
2019-03-16T17:20:10.424Z,99.90
2019-03-16T17:22:40.116Z,99.90
2019-03-16T17:25:09.163Z,99.90
2019-03-16T17:27:38.502Z,99.90
2019-03-16T17:30:13.063Z,99.90
2019-03-16T17:32:42.034Z,99.90
2019-03-16T17:35:11.841Z,99.90
2019-03-16T17:37:41.220Z,99.90
2019-03-16T17:40:10.302Z,99.90
2019-03-16T17:42:39.275Z,99.90
2019-03-16T17:45:08.757Z,99.90
2019-03-16T17:47:37.867Z,99.90
2019-03-16T17:50:07.406Z,99.90
2019-03-16T17:52:37.093Z,99.90
2019-03-16T17:55:06.547Z,99.90
2019-03-16T17:57:35.468Z,99.90
2019-03-16T18:00:04.891Z,99.90
2019-03-16T18:02:34.425Z,99.90
2019-03-16T18:05:03.647Z,99.90
2019-03-16T18:07:33.211Z,99.90
2019-03-16T18:10:02.323Z,99.90
2019-03-16T18:12:31.647Z,99.90
2019-03-16T18:15:00.978Z,99.90
2019-03-16T18:17:29.777Z,99.90
2019-03-16T18:19:59.209Z,99.90
2019-03-16T18:22:28.763Z,99.90
2019-03-16T18:24:58.310Z,99.90
2019-03-16T18:27:27.370Z,99.90
2019-03-16T18:29:56.668Z,99.90
2019-03-16T18:32:25.710Z,99.90
2019-03-16T18:34:54.498Z,99.90
2019-03-16T18:37:23.841Z,99.90
2019-03-16T18:39:53.191Z,99.90
2019-03-16T18:42:22.506Z,99.90
2019-03-16T18:44:51.897Z,99.90
2019-03-16T18:47:21.006Z,99.90
2019-03-16T18:49:50.322Z,99.90
2019-03-16T18:52:19.369Z,99.90
2019-03-16T18:54:49.025Z,99.90
2019-03-16T18:57:18.225Z,99.90
2019-03-16T18:59:47.933Z,99.90
2019-03-16T19:02:20.830Z,99.90
2019-03-16T19:04:47.553Z,99.90
2019-03-16T19:07:16.426Z,99.90
2019-03-16T19:09:45.732Z,99.90
2019-03-16T19:12:14.787Z,99.90
2019-03-16T19:14:43.834Z,99.90
2019-03-16T19:17:13.230Z,99.90
2019-03-16T19:19:42.279Z,99.90
2019-03-16T19:22:12.004Z,99.90
2019-03-16T19:24:41.040Z,99.90
2019-03-16T19:27:10.318Z,99.90
2019-03-16T19:29:39.385Z,99.90
2019-03-16T19:32:08.958Z,99.90
2019-03-16T19:34:37.840Z,99.90
2019-03-16T19:37:06.879Z,99.90
2019-03-16T19:39:36.215Z,99.90
2019-03-16T19:42:05.078Z,99.90
2019-03-16T19:44:34.636Z,99.90
2019-03-16T19:47:03.551Z,99.90
2019-03-16T19:49:32.634Z,99.90
2019-03-16T19:52:01.935Z,99.90
2019-03-16T19:54:31.296Z,99.90
2019-03-16T19:57:00.814Z,99.90
2019-03-16T19:59:30.161Z,99.90
2019-03-16T20:01:59.830Z,99.90
2019-03-16T20:04:35.847Z,99.90
2019-03-16T20:06:59.707Z,99.90
2019-03-16T20:09:29.331Z,99.90
2019-03-16T20:11:58.622Z,99.90
2019-03-16T20:14:27.761Z,99.90
2019-03-16T20:16:57.073Z,99.90
2019-03-16T20:19:26.684Z,99.90
2019-03-16T20:21:56.070Z,99.90
2019-03-16T20:24:25.427Z,99.90
2019-03-16T20:26:54.866Z,99.90
2019-03-16T20:29:24.033Z,99.90
2019-03-16T20:31:53.515Z,99.90
2019-03-16T20:34:22.842Z,99.90
2019-03-16T20:36:52.205Z,99.90
2019-03-16T20:39:21.511Z,99.90
2019-03-16T20:41:50.651Z,99.90
2019-03-16T20:44:20.187Z,99.90
2019-03-16T20:46:49.470Z,99.90
2019-03-16T20:49:18.519Z,99.90
2019-03-16T20:51:47.558Z,99.90
2019-03-16T20:54:16.668Z,99.90
2019-03-16T20:56:45.774Z,99.90
2019-03-16T20:59:14.569Z,99.90
2019-03-16T21:01:43.695Z,99.90
2019-03-16T21:04:13.090Z,99.90
2019-03-16T21:06:42.477Z,99.90
2019-03-16T21:09:11.846Z,99.90
2019-03-16T21:11:40.966Z,99.90
2019-03-16T21:14:09.855Z,99.90
2019-03-16T21:16:38.714Z,99.90
2019-03-16T21:19:08.006Z,99.90
2019-03-16T21:21:36.784Z,99.90
2019-03-16T21:24:07.497Z,99.90
2019-03-16T21:26:36.699Z,99.90
2019-03-16T21:29:05.831Z,99.40
2019-03-16T21:31:34.867Z,99.60
2019-03-16T21:34:04.497Z,96.30
2019-03-16T21:36:41.298Z,97.90
2019-03-16T21:39:06.795Z,96.60
2019-03-16T21:41:35.704Z,95.50
2019-03-16T21:44:04.607Z,96.40
2019-03-16T21:46:33.634Z,96.40
2019-03-16T21:49:02.916Z,96.00
2019-03-16T21:51:32.469Z,97.10
2019-03-16T21:54:01.760Z,97.00
2019-03-16T21:56:31.087Z,97.80
2019-03-16T21:59:00.366Z,96.40
2019-03-16T22:01:29.556Z,95.10
2019-03-16T22:03:58.357Z,92.50
2019-03-16T22:06:28.005Z,92.50
2019-03-16T22:08:57.275Z,93.80
2019-03-16T22:11:26.095Z,90.70
2019-03-16T22:13:55.009Z,93.60
2019-03-16T22:16:24.113Z,91.50
2019-03-16T22:18:52.910Z,82.70
2019-03-16T22:21:21.946Z,82.00
2019-03-16T22:23:51.002Z,77.70
2019-03-16T22:26:20.045Z,74.80
2019-03-16T22:28:49.183Z,71.30
2019-03-16T22:31:18.226Z,68.90
2019-03-16T22:33:54.292Z,68.70
2019-03-16T22:36:17.931Z,67.90
2019-03-16T22:38:46.961Z,67.60
2019-03-16T22:41:16.070Z,68.00
2019-03-16T22:43:44.892Z,68.20
2019-03-16T22:46:14.181Z,69.50
2019-03-16T22:48:43.494Z,68.90
2019-03-16T22:51:12.789Z,67.70
2019-03-16T22:53:42.069Z,66.90
2019-03-16T22:56:11.354Z,68.60
2019-03-16T22:58:40.637Z,66.00
2019-03-16T23:01:10.902Z,65.70
2019-03-16T23:03:40.269Z,66.30
2019-03-16T23:06:09.222Z,65.00
2019-03-16T23:08:38.328Z,65.60
2019-03-16T23:11:07.721Z,65.00
2019-03-16T23:13:37.251Z,63.50
2019-03-16T23:16:06.494Z,65.00
2019-03-16T23:18:36.023Z,64.00
2019-03-16T23:21:05.157Z,64.40
2019-03-16T23:23:34.214Z,64.80
2019-03-16T23:26:03.525Z,63.30
2019-03-16T23:28:32.817Z,65.30
2019-03-16T23:31:01.857Z,64.90
2019-03-16T23:33:31.375Z,63.10
2019-03-16T23:36:00.409Z,61.70
2019-03-16T23:38:29.470Z,59.50
2019-03-16T23:40:58.262Z,59.10
2019-03-16T23:43:27.294Z,58.90
2019-03-16T23:45:56.338Z,59.20
2019-03-16T23:48:25.380Z,58.90
2019-03-16T23:50:54.253Z,58.40
2019-03-16T23:53:23.042Z,58.50
2019-03-16T23:55:51.931Z,59.00
2019-03-16T23:58:21.193Z,59.10
